createdAt,value
2018-01-22T00:00:06.543Z,89.80
2018-01-22T00:02:33.937Z,90.02
2018-01-22T00:05:01.343Z,89.81
2018-01-22T00:07:28.779Z,89.83
2018-01-22T00:09:56.185Z,89.98
2018-01-22T00:12:23.566Z,90.25
2018-01-22T00:14:51.052Z,90.11
2018-01-22T00:17:18.467Z,90.28
2018-01-22T00:19:45.845Z,90.33
2018-01-22T00:22:13.264Z,90.44
2018-01-22T00:24:40.654Z,90.09
2018-01-22T00:27:08.063Z,89.78
2018-01-22T00:29:35.467Z,89.86
2018-01-22T00:32:02.902Z,89.57
2018-01-22T00:34:30.298Z,89.99
2018-01-22T00:36:57.710Z,90.22
2018-01-22T00:39:25.110Z,90.01
2018-01-22T00:41:52.514Z,89.74
2018-01-22T00:44:19.916Z,89.81
2018-01-22T00:46:47.311Z,89.46
2018-01-22T00:49:14.713Z,89.38
2018-01-22T00:51:42.102Z,89.55
2018-01-22T00:54:09.536Z,89.48
2018-01-22T00:56:36.947Z,89.76
2018-01-22T00:59:04.347Z,89.77
2018-01-22T01:01:31.751Z,89.32
2018-01-22T01:03:59.151Z,89.43
2018-01-22T01:06:26.556Z,89.61
2018-01-22T01:08:53.941Z,90.05
2018-01-22T01:11:21.353Z,89.68
2018-01-22T01:13:49.291Z,89.70
2018-01-22T01:16:16.694Z,89.37
2018-01-22T01:18:44.096Z,89.49
2018-01-22T01:21:11.508Z,89.66
2018-01-22T01:23:38.913Z,89.91
2018-01-22T01:26:06.734Z,90.18
2018-01-22T01:28:34.222Z,90.44
2018-01-22T01:31:01.647Z,90.33
2018-01-22T01:33:29.063Z,90.15
2018-01-22T01:35:56.459Z,90.10
2018-01-22T01:38:23.864Z,90.02
2018-01-22T01:40:51.266Z,90.37
2018-01-22T01:43:18.972Z,90.24
2018-01-22T01:45:46.359Z,89.74
2018-01-22T01:48:13.778Z,89.50
2018-01-22T01:50:41.162Z,89.47
2018-01-22T01:53:08.563Z,89.93
2018-01-22T01:55:35.959Z,90.23
2018-01-22T01:58:03.367Z,90.16
2018-01-22T02:00:30.771Z,89.76
2018-01-22T02:02:58.174Z,89.38
2018-01-22T02:05:25.570Z,89.26
2018-01-22T02:07:52.974Z,88.81
2018-01-22T02:10:20.382Z,88.48
2018-01-22T02:12:47.802Z,88.38
2018-01-22T02:15:15.198Z,88.47
2018-01-22T02:17:42.605Z,89.05
2018-01-22T02:20:10.002Z,89.28
2018-01-22T02:22:37.398Z,89.31
2018-01-22T02:25:04.836Z,89.31
2018-01-22T02:27:32.272Z,89.26
2018-01-22T02:29:59.654Z,88.47
2018-01-22T02:32:27.050Z,88.72
2018-01-22T02:34:54.458Z,89.13
2018-01-22T02:37:21.879Z,88.98
2018-01-22T02:39:49.261Z,89.47
2018-01-22T02:42:16.659Z,89.52
2018-01-22T02:44:44.062Z,89.35
2018-01-22T02:47:11.454Z,89.43
2018-01-22T02:49:38.954Z,89.56
2018-01-22T02:52:06.356Z,89.18
2018-01-22T02:54:33.862Z,89.44
2018-01-22T02:57:01.250Z,89.54
2018-01-22T02:59:28.658Z,89.61
2018-01-22T03:01:56.076Z,89.41
2018-01-22T03:04:23.562Z,89.15
2018-01-22T03:06:50.952Z,89.08
2018-01-22T03:09:18.347Z,89.21
2018-01-22T03:11:45.838Z,89.46
2018-01-22T03:14:13.234Z,89.18
2018-01-22T03:16:40.646Z,89.30
2018-01-22T03:19:08.038Z,89.17
2018-01-22T03:21:35.443Z,89.31
2018-01-22T03:24:02.834Z,89.75
2018-01-22T03:26:30.270Z,89.79
2018-01-22T03:28:57.665Z,89.50
2018-01-22T03:31:25.068Z,89.79
2018-01-22T03:33:52.466Z,90.08
2018-01-22T03:36:19.876Z,89.79
2018-01-22T03:38:47.326Z,89.85
2018-01-22T03:41:14.726Z,89.88
2018-01-22T03:43:42.125Z,89.62
2018-01-22T03:46:09.535Z,89.31
2018-01-22T03:48:36.972Z,88.99
2018-01-22T03:51:04.361Z,88.54
2018-01-22T03:53:31.775Z,88.56
2018-01-22T03:55:59.186Z,88.40
2018-01-22T03:58:26.586Z,88.48
2018-01-22T04:00:54.019Z,88.31
2018-01-22T04:03:21.521Z,88.48
2018-01-22T04:05:48.915Z,88.09
2018-01-22T04:08:16.311Z,87.93
2018-01-22T04:10:43.731Z,87.80
2018-01-22T04:13:11.134Z,88.07
2018-01-22T04:15:38.513Z,88.36
2018-01-22T04:18:05.951Z,88.42
2018-01-22T04:20:33.352Z,88.18
2018-01-22T04:23:00.759Z,87.78
2018-01-22T04:25:28.151Z,87.52
2018-01-22T04:27:55.554Z,87.57
2018-01-22T04:30:22.966Z,87.59
2018-01-22T04:32:50.379Z,87.63
2018-01-22T04:35:17.799Z,87.48
2018-01-22T04:37:45.206Z,87.45
2018-01-22T04:40:12.602Z,87.19
2018-01-22T04:42:40.019Z,87.11
2018-01-22T04:45:07.419Z,86.96
2018-01-22T04:47:34.913Z,86.77
2018-01-22T04:50:02.346Z,86.54
2018-01-22T04:52:29.742Z,86.31
2018-01-22T04:54:57.146Z,86.40
2018-01-22T04:57:24.604Z,86.41
2018-01-22T04:59:52.006Z,86.06
2018-01-22T05:02:19.450Z,86.06
2018-01-22T05:04:46.842Z,86.47
2018-01-22T05:07:14.253Z,86.79
2018-01-22T05:09:41.655Z,86.78
2018-01-22T05:12:09.059Z,86.43
2018-01-22T05:14:36.445Z,86.13
2018-01-22T05:17:03.879Z,86.15
2018-01-22T05:19:31.288Z,86.44
2018-01-22T05:21:58.680Z,86.82
2018-01-22T05:24:26.081Z,87.36
2018-01-22T05:26:53.467Z,87.54
2018-01-22T05:29:20.909Z,87.59
2018-01-22T05:31:48.377Z,87.79
2018-01-22T05:34:15.779Z,88.02
2018-01-22T05:36:43.262Z,88.04
2018-01-22T05:39:10.818Z,87.78
2018-01-22T05:41:38.371Z,88.17
2018-01-22T05:44:05.890Z,88.40
2018-01-22T05:46:34.434Z,88.75
2018-01-22T05:49:02.114Z,89.01
2018-01-22T05:51:29.694Z,89.18
2018-01-22T05:53:57.373Z,89.62
2018-01-22T05:56:24.842Z,89.87
2018-01-22T05:58:52.451Z,90.42
2018-01-22T06:01:19.886Z,90.82
2018-01-22T06:03:47.278Z,91.18
2018-01-22T06:06:14.756Z,91.51
2018-01-22T06:08:42.154Z,91.50
2018-01-22T06:11:09.595Z,91.56
2018-01-22T06:13:36.981Z,91.35
2018-01-22T06:16:04.366Z,91.51
2018-01-22T06:18:31.766Z,91.78
2018-01-22T06:20:59.206Z,91.71
2018-01-22T06:23:26.606Z,91.49
2018-01-22T06:25:54.798Z,91.59
2018-01-22T06:28:22.206Z,91.20
2018-01-22T06:30:49.602Z,90.85
2018-01-22T06:33:17.027Z,90.51
2018-01-22T06:35:44.503Z,90.58
2018-01-22T06:38:11.932Z,90.77
2018-01-22T06:40:39.322Z,91.11
2018-01-22T06:43:06.734Z,91.30
2018-01-22T06:45:34.147Z,91.43
2018-01-22T06:48:01.543Z,91.49
2018-01-22T06:50:28.957Z,91.60
2018-01-22T06:52:56.374Z,91.77
2018-01-22T06:55:23.761Z,91.66
2018-01-22T06:57:51.350Z,91.67
2018-01-22T07:00:18.758Z,92.07
2018-01-22T07:02:46.915Z,92.11
2018-01-22T07:05:14.303Z,91.99
2018-01-22T07:07:41.695Z,92.01
2018-01-22T07:10:09.090Z,92.13
2018-01-22T07:12:36.501Z,91.97
2018-01-22T07:15:03.906Z,91.52
2018-01-22T07:17:31.317Z,91.38
2018-01-22T07:19:58.833Z,91.47
2018-01-22T07:22:26.254Z,91.72
2018-01-22T07:24:53.659Z,91.66
2018-01-22T07:27:21.063Z,91.95
2018-01-22T07:29:48.458Z,92.13
2018-01-22T07:32:15.854Z,91.90
2018-01-22T07:34:43.254Z,91.59
2018-01-22T07:37:10.652Z,91.63
2018-01-22T07:39:38.050Z,91.82
2018-01-22T07:42:05.452Z,91.77
2018-01-22T07:44:32.856Z,91.84
2018-01-22T07:47:00.263Z,91.81
2018-01-22T07:49:27.663Z,91.86
2018-01-22T07:51:55.059Z,92.02
2018-01-22T07:54:22.457Z,92.05
2018-01-22T07:56:49.873Z,92.00
2018-01-22T07:59:17.250Z,91.89
2018-01-22T08:01:44.650Z,91.95
2018-01-22T08:04:12.092Z,91.54
2018-01-22T08:06:39.482Z,91.51
2018-01-22T08:09:06.870Z,91.69
2018-01-22T08:11:34.270Z,91.67
2018-01-22T08:14:01.672Z,91.59
2018-01-22T08:16:29.086Z,91.59
2018-01-22T08:18:56.539Z,91.81
2018-01-22T08:21:23.941Z,91.77
2018-01-22T08:23:51.334Z,91.88
2018-01-22T08:26:18.738Z,92.06
2018-01-22T08:28:46.153Z,92.07
2018-01-22T08:31:13.556Z,92.09
2018-01-22T08:33:40.941Z,92.04
2018-01-22T08:36:08.358Z,92.05
2018-01-22T08:38:35.766Z,92.01
2018-01-22T08:41:03.171Z,92.31
2018-01-22T08:43:30.562Z,92.43
2018-01-22T08:45:57.982Z,92.48
2018-01-22T08:48:25.450Z,92.42
2018-01-22T08:50:52.862Z,92.16
2018-01-22T08:53:20.252Z,91.97
2018-01-22T08:55:47.650Z,91.82
2018-01-22T08:58:15.058Z,91.70
2018-01-22T09:00:42.455Z,91.55
2018-01-22T09:03:09.845Z,91.53
2018-01-22T09:05:37.246Z,91.47
2018-01-22T09:08:04.642Z,91.45
2018-01-22T09:10:32.058Z,91.88
2018-01-22T09:12:59.455Z,92.23
2018-01-22T09:15:26.859Z,92.25
2018-01-22T09:17:54.251Z,92.36
2018-01-22T09:20:21.670Z,92.46
2018-01-22T09:22:49.068Z,92.50
2018-01-22T09:25:16.453Z,92.51
2018-01-22T09:27:43.867Z,92.37
2018-01-22T09:30:11.285Z,92.57
2018-01-22T09:32:38.675Z,92.54
2018-01-22T09:35:06.063Z,92.69
2018-01-22T09:37:33.469Z,92.71
2018-01-22T09:40:00.884Z,92.76
2018-01-22T09:42:28.281Z,92.85
2018-01-22T09:44:55.706Z,93.14
2018-01-22T09:47:23.111Z,93.29
2018-01-22T09:49:50.506Z,93.43
2018-01-22T09:52:17.927Z,93.45
2018-01-22T09:54:45.314Z,93.39
2018-01-22T09:57:12.723Z,93.18
2018-01-22T09:59:40.093Z,92.79
2018-01-22T10:02:07.550Z,92.83
2018-01-22T10:04:34.975Z,92.85
2018-01-22T10:07:02.396Z,92.73
2018-01-22T10:09:29.809Z,92.73
2018-01-22T10:11:57.226Z,92.35
2018-01-22T10:14:24.601Z,92.54
2018-01-22T10:16:51.986Z,92.75
2018-01-22T10:19:19.382Z,92.64
2018-01-22T10:21:46.775Z,92.65
2018-01-22T10:24:14.182Z,92.74
2018-01-22T10:26:41.574Z,92.84
2018-01-22T10:29:08.970Z,92.83
2018-01-22T10:31:36.357Z,92.74
2018-01-22T10:34:03.756Z,92.59
2018-01-22T10:36:31.148Z,92.75
2018-01-22T10:38:58.560Z,92.62
2018-01-22T10:41:25.951Z,92.31
2018-01-22T10:43:53.347Z,92.00
2018-01-22T10:46:20.735Z,91.98
2018-01-22T10:48:48.142Z,92.20
2018-01-22T10:51:15.547Z,92.41
2018-01-22T10:53:42.937Z,92.53
2018-01-22T10:56:10.330Z,92.80
2018-01-22T10:58:37.725Z,92.89
2018-01-22T11:01:05.142Z,92.82
2018-01-22T11:03:32.534Z,92.32
2018-01-22T11:05:59.946Z,92.39
2018-01-22T11:08:27.382Z,92.62
2018-01-22T11:10:54.807Z,92.29
2018-01-22T11:13:22.171Z,91.52
2018-01-22T11:15:55.229Z,90.85
2018-01-22T11:18:22.722Z,90.18
2018-01-22T11:20:50.126Z,89.20
2018-01-22T11:23:17.522Z,88.25
2018-01-22T11:25:44.921Z,88.37
2018-01-22T11:28:12.326Z,88.22
2018-01-22T11:30:39.737Z,88.28
2018-01-22T11:33:07.259Z,88.74
2018-01-22T11:35:34.675Z,88.94
2018-01-22T11:38:02.082Z,89.67
2018-01-22T11:40:29.470Z,90.08
2018-01-22T11:42:56.874Z,90.39
2018-01-22T11:45:24.263Z,90.86
2018-01-22T11:47:51.653Z,90.76
2018-01-22T11:50:19.042Z,90.47
2018-01-22T11:52:46.498Z,90.18
2018-01-22T11:55:13.886Z,90.02
2018-01-22T11:57:41.305Z,90.03
2018-01-22T12:00:08.707Z,89.82
2018-01-22T12:02:36.099Z,89.26
2018-01-22T12:05:03.500Z,88.56
2018-01-22T12:07:30.890Z,89.03
2018-01-22T12:09:58.278Z,89.51
2018-01-22T12:12:25.682Z,89.73
2018-01-22T12:14:53.086Z,89.46
2018-01-22T12:17:20.503Z,89.34
2018-01-22T12:19:47.917Z,89.25
2018-01-22T12:22:15.317Z,89.17
2018-01-22T12:24:42.819Z,88.86
2018-01-22T12:27:10.254Z,89.17
2018-01-22T12:29:37.672Z,89.03
2018-01-22T12:32:05.075Z,89.33
2018-01-22T12:34:32.466Z,89.09
2018-01-22T12:36:59.854Z,88.72
2018-01-22T12:39:27.310Z,88.47
2018-01-22T12:41:54.690Z,88.30
2018-01-22T12:44:22.117Z,88.20
2018-01-22T12:46:49.505Z,87.79
2018-01-22T12:49:16.898Z,87.34
2018-01-22T12:51:44.307Z,88.11
2018-01-22T12:54:12.066Z,88.76
2018-01-22T12:56:39.459Z,89.20
2018-01-22T12:59:06.864Z,89.03
2018-01-22T13:01:34.246Z,88.35
2018-01-22T13:04:01.654Z,87.74
2018-01-22T13:06:29.038Z,87.17
2018-01-22T13:08:56.509Z,87.30
2018-01-22T13:11:23.898Z,88.20
2018-01-22T13:13:51.327Z,88.84
2018-01-22T13:16:18.911Z,89.42
2018-01-22T13:18:46.320Z,89.59
2018-01-22T13:21:13.703Z,89.89
2018-01-22T13:23:41.148Z,89.76
2018-01-22T13:26:08.539Z,89.29
2018-01-22T13:28:35.974Z,88.75
2018-01-22T13:31:03.443Z,87.85
2018-01-22T13:33:30.827Z,87.11
2018-01-22T13:35:58.234Z,86.72
2018-01-22T13:38:25.622Z,86.89
2018-01-22T13:40:58.758Z,87.18
2018-01-22T13:43:26.141Z,86.45
2018-01-22T13:45:53.760Z,86.43
2018-01-22T13:48:21.182Z,85.51
2018-01-22T13:50:48.585Z,84.97
2018-01-22T13:53:15.983Z,84.64
2018-01-22T13:55:43.375Z,84.03
2018-01-22T13:58:10.767Z,83.80
2018-01-22T14:00:38.187Z,83.93
2018-01-22T14:03:05.558Z,84.16
2018-01-22T14:05:32.966Z,84.67
2018-01-22T14:08:00.355Z,84.63
2018-01-22T14:10:27.754Z,84.99
2018-01-22T14:12:55.168Z,84.79
2018-01-22T14:15:22.559Z,84.50
2018-01-22T14:17:49.978Z,84.87
2018-01-22T14:20:17.393Z,84.66
2018-01-22T14:22:44.786Z,84.55
2018-01-22T14:25:12.179Z,84.43
2018-01-22T14:27:39.580Z,84.24
2018-01-22T14:30:06.974Z,83.80
2018-01-22T14:32:34.387Z,83.59
2018-01-22T14:35:01.799Z,83.30
2018-01-22T14:37:29.217Z,82.90
2018-01-22T14:39:56.621Z,82.85
2018-01-22T14:42:24.019Z,82.69
2018-01-22T14:44:51.416Z,82.50
2018-01-22T14:47:18.837Z,82.69
2018-01-22T14:49:46.224Z,82.43
2018-01-22T14:52:13.626Z,82.30
2018-01-22T14:54:41.003Z,81.96
2018-01-22T14:57:08.402Z,81.32
2018-01-22T14:59:35.788Z,81.14
2018-01-22T15:02:03.190Z,80.84
2018-01-22T15:04:30.586Z,80.49
2018-01-22T15:06:57.977Z,80.22
2018-01-22T15:09:25.385Z,80.00
2018-01-22T15:11:52.777Z,79.86
2018-01-22T15:14:20.190Z,79.85
2018-01-22T15:16:47.618Z,79.67
2018-01-22T15:19:15.030Z,79.55
2018-01-22T15:21:42.426Z,79.46
2018-01-22T15:24:09.839Z,79.60
2018-01-22T15:26:37.247Z,79.21
2018-01-22T15:29:04.645Z,79.12
2018-01-22T15:31:32.039Z,79.89
2018-01-22T15:33:59.455Z,80.81
2018-01-22T15:36:26.852Z,81.05
2018-01-22T15:38:54.267Z,82.65
2018-01-22T15:41:21.671Z,83.11
2018-01-22T15:43:49.074Z,83.41
2018-01-22T15:46:16.462Z,84.10
2018-01-22T15:48:43.876Z,83.58
2018-01-22T15:51:11.286Z,83.45
2018-01-22T15:53:38.701Z,82.89
2018-01-22T15:56:06.102Z,82.58
2018-01-22T15:58:33.515Z,82.21
2018-01-22T16:01:00.922Z,81.98
2018-01-22T16:03:28.392Z,81.72
2018-01-22T16:05:55.832Z,81.32
2018-01-22T16:08:23.230Z,81.18
2018-01-22T16:10:50.631Z,81.51
2018-01-22T16:13:18.023Z,81.85
2018-01-22T16:15:45.426Z,81.58
2018-01-22T16:18:12.835Z,81.50
2018-01-22T16:20:40.256Z,81.09
2018-01-22T16:23:07.653Z,81.04
2018-01-22T16:25:35.069Z,81.26
2018-01-22T16:28:02.458Z,81.76
2018-01-22T16:30:29.861Z,81.93
2018-01-22T16:32:57.258Z,81.39
2018-01-22T16:35:24.675Z,81.17
2018-01-22T16:37:52.098Z,81.12
2018-01-22T16:40:19.503Z,81.00
2018-01-22T16:42:46.898Z,81.33
2018-01-22T16:45:14.305Z,81.31
2018-01-22T16:47:47.203Z,81.05
2018-01-22T16:50:14.642Z,80.93
2018-01-22T16:52:42.044Z,80.77
2018-01-22T16:55:09.454Z,80.70
2018-01-22T16:57:36.870Z,80.48
2018-01-22T17:00:04.266Z,80.24
2018-01-22T17:02:31.778Z,80.36
2018-01-22T17:04:59.169Z,80.27
2018-01-22T17:07:26.604Z,80.42
2018-01-22T17:09:54.002Z,80.14
2018-01-22T17:12:21.402Z,80.96
2018-01-22T17:14:48.802Z,80.93
2018-01-22T17:17:16.199Z,80.78
2018-01-22T17:19:43.603Z,80.84
2018-01-22T17:22:11.011Z,81.07
2018-01-22T17:24:38.488Z,81.34
2018-01-22T17:27:05.897Z,81.23
2018-01-22T17:29:33.293Z,80.79
2018-01-22T17:32:00.722Z,81.91
2018-01-22T17:34:28.122Z,82.32
2018-01-22T17:36:55.555Z,82.53
2018-01-22T17:39:22.962Z,83.38
2018-01-22T17:41:50.371Z,84.40
2018-01-22T17:44:17.754Z,85.14
2018-01-22T17:46:45.175Z,85.54
2018-01-22T17:49:12.630Z,85.34
2018-01-22T17:51:40.030Z,86.03
2018-01-22T17:54:07.455Z,86.39
2018-01-22T17:56:34.851Z,86.50
2018-01-22T17:59:02.273Z,86.68
2018-01-22T18:01:29.666Z,86.38
2018-01-22T18:03:57.169Z,86.59
2018-01-22T18:06:24.555Z,86.76
2018-01-22T18:08:51.960Z,86.55
2018-01-22T18:11:19.358Z,86.80
2018-01-22T18:13:46.768Z,87.35
2018-01-22T18:16:14.259Z,86.34
2018-01-22T18:18:41.652Z,85.95
2018-01-22T18:21:09.479Z,85.29
2018-01-22T18:23:36.882Z,85.04
2018-01-22T18:26:04.339Z,84.84
2018-01-22T18:28:31.746Z,84.73
2018-01-22T18:30:59.173Z,84.17
2018-01-22T18:33:26.589Z,83.77
2018-01-22T18:35:53.991Z,83.32
2018-01-22T18:38:21.389Z,82.99
2018-01-22T18:40:48.787Z,83.44
2018-01-22T18:43:16.206Z,83.84
2018-01-22T18:45:43.614Z,83.44
2018-01-22T18:48:11.023Z,82.80
2018-01-22T18:50:38.444Z,82.67
2018-01-22T18:53:05.845Z,82.77
2018-01-22T18:55:33.265Z,82.38
2018-01-22T18:58:00.658Z,82.40
2018-01-22T19:00:28.068Z,81.93
2018-01-22T19:02:55.462Z,81.65
2018-01-22T19:05:22.872Z,81.25
2018-01-22T19:07:50.311Z,80.94
2018-01-22T19:10:17.710Z,80.58
2018-01-22T19:12:45.107Z,80.46
2018-01-22T19:15:12.615Z,80.22
2018-01-22T19:17:40.018Z,80.02
2018-01-22T19:20:07.430Z,79.94
2018-01-22T19:22:34.837Z,79.90
2018-01-22T19:25:02.243Z,79.79
2018-01-22T19:27:30.445Z,79.78
2018-01-22T19:29:57.859Z,79.73
2018-01-22T19:32:25.262Z,80.19
2018-01-22T19:34:52.672Z,79.83
2018-01-22T19:37:20.075Z,79.99
2018-01-22T19:39:47.495Z,80.36
2018-01-22T19:42:14.919Z,80.61
2018-01-22T19:44:42.310Z,80.54
2018-01-22T19:47:09.718Z,80.80
2018-01-22T19:49:37.194Z,80.77
2018-01-22T19:52:04.694Z,80.78
2018-01-22T19:54:32.094Z,80.64
2018-01-22T19:56:59.498Z,80.55
2018-01-22T19:59:26.925Z,80.78
2018-01-22T20:01:54.324Z,81.16
2018-01-22T20:04:21.801Z,81.08
2018-01-22T20:06:49.283Z,80.87
2018-01-22T20:09:16.859Z,80.53
2018-01-22T20:11:44.283Z,81.00
2018-01-22T20:14:11.721Z,80.80
2018-01-22T20:16:39.136Z,80.38
2018-01-22T20:21:40.429Z,80.12
2018-01-22T20:24:07.831Z,80.10
2018-01-22T20:26:36.449Z,79.80
2018-01-22T20:29:03.860Z,80.25
2018-01-22T20:31:31.262Z,80.42
2018-01-22T20:33:58.658Z,80.78
2018-01-22T20:36:26.071Z,80.46
2018-01-22T20:38:53.476Z,80.03
2018-01-22T20:41:20.910Z,79.69
2018-01-22T20:43:48.321Z,79.70
2018-01-22T20:46:15.717Z,79.74
2018-01-22T20:48:43.118Z,79.46
2018-01-22T20:51:10.579Z,79.19
2018-01-22T20:53:37.974Z,79.04
2018-01-22T20:56:05.386Z,78.84
2018-01-22T20:58:32.807Z,78.78
2018-01-22T21:01:00.243Z,78.71
2018-01-22T21:03:27.695Z,78.55
2018-01-22T21:05:55.091Z,78.43
2018-01-22T21:08:22.510Z,78.49
2018-01-22T21:10:49.922Z,78.50
2018-01-22T21:13:17.343Z,78.44
2018-01-22T21:15:44.762Z,78.36
2018-01-22T21:18:12.179Z,78.45
2018-01-22T21:20:39.968Z,78.42
2018-01-22T21:23:07.371Z,78.72
2018-01-22T21:25:34.774Z,78.76
2018-01-22T21:28:02.187Z,78.86
2018-01-22T21:30:29.695Z,78.76
2018-01-22T21:32:57.123Z,78.89
2018-01-22T21:35:24.534Z,78.96
2018-01-22T21:37:51.943Z,78.97
2018-01-22T21:40:19.349Z,79.03
2018-01-22T21:42:46.758Z,79.68
2018-01-22T21:45:14.216Z,80.69
2018-01-22T21:47:41.618Z,81.00
2018-01-22T21:50:09.018Z,81.17
2018-01-22T21:52:36.418Z,81.67
2018-01-22T21:55:03.817Z,81.58
2018-01-22T21:57:31.219Z,81.76
2018-01-22T21:59:58.643Z,82.55
2018-01-22T22:02:26.044Z,83.09
2018-01-22T22:04:53.455Z,83.91
2018-01-22T22:07:20.875Z,84.23
2018-01-22T22:09:48.312Z,84.33
2018-01-22T22:12:15.706Z,84.28
2018-01-22T22:14:43.113Z,83.79
2018-01-22T22:17:10.514Z,84.78
2018-01-22T22:19:37.924Z,85.23
2018-01-22T22:22:05.314Z,85.85
2018-01-22T22:24:32.766Z,85.48
2018-01-22T22:27:00.158Z,85.98
2018-01-22T22:29:27.566Z,86.14
2018-01-22T22:31:54.984Z,86.26
2018-01-22T22:34:22.422Z,85.82
2018-01-22T22:36:49.835Z,85.80
2018-01-22T22:39:17.251Z,85.43
2018-01-22T22:41:44.670Z,85.59
2018-01-22T22:44:12.114Z,85.36
2018-01-22T22:46:39.543Z,85.87
2018-01-22T22:49:06.970Z,85.76
2018-01-22T22:51:34.369Z,87.07
2018-01-22T22:54:01.778Z,87.42
2018-01-22T22:56:29.180Z,87.43
2018-01-22T22:58:56.600Z,87.45
2018-01-22T23:01:24.009Z,88.69
2018-01-22T23:03:51.409Z,89.03
2018-01-22T23:06:18.815Z,89.03
2018-01-22T23:08:46.209Z,89.58
2018-01-22T23:11:13.627Z,90.29
2018-01-22T23:13:41.026Z,90.37
2018-01-22T23:16:08.425Z,90.84
2018-01-22T23:18:35.814Z,91.02
2018-01-22T23:21:03.221Z,91.54
2018-01-22T23:23:30.641Z,91.83
2018-01-22T23:25:58.050Z,91.83
2018-01-22T23:28:25.448Z,92.29
2018-01-22T23:30:52.874Z,92.79
2018-01-22T23:33:20.289Z,92.64
2018-01-22T23:35:47.696Z,92.48
2018-01-22T23:38:15.090Z,92.13
2018-01-22T23:40:43.154Z,92.33
2018-01-22T23:43:10.558Z,92.21
2018-01-22T23:45:37.970Z,92.96
2018-01-22T23:48:05.366Z,93.08
2018-01-22T23:50:32.846Z,92.95
2018-01-22T23:53:00.230Z,92.36
2018-01-22T23:55:27.647Z,92.27
2018-01-22T23:57:55.062Z,91.26
